Archiv-/Tagesdaten

--Timestamp---	Temp	Chill	HIndex	Humid	Dewpt	Wind	HiWind	WindDir	Rain	Barom	        Solar	ET	UV
--------------	----	-----	------	-----	-----	----	------	-------	----	-----	        -----	--	--
20080924 00:05	4.7	4.7	4.7	91	3.4	0	0	135	0.00	1017.917	0	0.000	0
20080924 00:10	4.7	4.7	4.7	91	3.3	0	0	135	0.00	1017.917	0	0.000	0
20080924 00:15	4.6	4.6	4.6	91	3.2	0	0	135	0.00	1017.884	0	0.000	0
20080924 00:20	4.5	4.5	4.5	91	3.2	0	0	135	0.00	1017.917	0	0.000	0
20080924 00:25	4.4	4.4	4.4	91	3.1	0	0	135	0.00	1017.985	0	0.000	0
20080924 00:30	4.3	4.3	4.3	91	3.0	0	3	135	0.00	1017.985	0	0.000	0
20080924 00:35	4.2	4.2	4.2	91	2.9	0	2	135	0.00	1017.917	0	0.000	0
20080924 00:40	4.2	4.2	4.2	91	2.9	0	2	135	0.00	1017.951	0	0.000	0
20080924 00:45	4.2	4.2	4.2	91	2.8	0	0	135	0.00	1017.884	0	0.000	0
20080924 00:50	4.1	4.1	4.1	91	2.8	0	0	135	0.00	1018.087	0	0.000	0
20080924 00:55	4.0	4.0	4.0	92	2.8	0	0	135	0.00	1018.019	0	0.000	0
20080924 01:00	4.0	4.0	4.0	92	2.8	0	2	135	0.00	1018.019	0	0.000	0
20080924 01:05	4.0	4.0	4.0	92	2.8	0	0	135	0.00	1017.850	0	0.000	0
20080924 01:10	4.0	4.0	4.0	92	2.8	0	0	135	0.00	1017.782	0	0.000	0
20080924 01:15	4.0	4.0	4.0	92	2.8	0	0	135	0.00	1017.782	0	0.000	0
20080924 01:20	4.0	4.0	4.0	92	2.8	0	2	135	0.00	1017.714	0	0.000	0
20080924 01:25	4.1	4.1	4.1	92	2.9	0	2	135	0.00	1017.748	0	0.000	0
20080924 01:30	3.9	3.9	3.9	92	2.8	0	2	135	0.00	1017.816	0	0.000	0
20080924 01:35	3.9	3.9	3.9	92	2.7	0	0	135	0.00	1017.782	0	0.000	0
20080924 01:40	3.8	3.8	3.8	92	2.7	0	0	135	0.00	1017.816	0	0.000	0
20080924 01:45	3.7	3.7	3.7	92	2.5	0	0	135	0.00	1017.884	0	0.000	0
20080924 01:50	3.6	3.6	3.6	92	2.4	0	0	135	0.00	1017.850	0	0.000	0
20080924 01:55	3.6	3.6	3.6	92	2.4	0	0	135	0.00	1017.816	0	0.000	0
20080924 02:00	3.5	3.5	3.5	92	2.3	0	0	135	0.00	1017.782	0	0.000	0
20080924 02:05	3.4	3.4	3.4	92	2.2	0	0	135	0.00	1017.714	0	0.000	0
20080924 02:10	3.4	3.4	3.4	92	2.2	0	0	135	0.00	1017.680	0	0.000	0
20080924 02:15	3.4	3.4	3.4	92	2.2	0	0	135	0.00	1017.680	0	0.000	0
20080924 02:20	3.3	3.3	3.3	92	2.2	0	0	135	0.00	1017.714	0	0.000	0
20080924 02:25	3.3	3.3	3.3	92	2.1	0	0	135	0.00	1017.613	0	0.000	0
20080924 02:30	3.2	3.2	3.2	92	2.0	0	0	135	0.00	1017.647	0	0.000	0
20080924 02:35	3.2	3.2	3.2	92	2.0	0	0	135	0.00	1017.613	0	0.000	0
20080924 02:40	3.1	3.1	3.1	92	1.9	0	0	135	0.00	1017.647	0	0.000	0
20080924 02:45	3.0	3.0	3.0	92	1.8	0	0	135	0.00	1017.782	0	0.000	0
20080924 02:50	2.9	2.9	2.9	92	1.8	0	0	135	0.00	1017.816	0	0.000	0
20080924 02:55	2.8	2.8	2.8	92	1.7	0	0	135	0.00	1017.884	0	0.000	0
20080924 03:00	2.8	2.8	2.8	92	1.6	0	0	135	0.00	1017.951	0	0.000	0
20080924 03:05	2.8	2.8	2.8	92	1.6	0	0	135	0.00	1017.917	0	0.000	0
20080924 03:10	2.7	2.7	2.7	92	1.5	0	0	135	0.00	1017.884	0	0.000	0
20080924 03:15	2.7	2.7	2.7	92	1.6	0	0	135	0.00	1017.951	0	0.000	0
20080924 03:20	2.7	2.7	2.7	92	1.6	0	0	135	0.00	1017.985	0	0.000	0
20080924 03:25	2.8	2.8	2.8	92	1.6	0	0	135	0.00	1017.985	0	0.000	0
20080924 03:30	2.8	2.8	2.8	92	1.6	0	0	135	0.00	1017.985	0	0.000	0
20080924 03:35	2.8	2.8	2.8	92	1.7	0	0	135	0.00	1017.985	0	0.000	0
20080924 03:40	2.9	2.9	2.9	93	1.9	0	0	135	0.00	1018.019	0	0.000	0
20080924 03:45	2.9	2.9	2.9	93	1.9	0	0	135	0.00	1017.951	0	0.000	0
20080924 03:50	2.8	2.8	2.8	92	1.7	0	0	135	0.00	1018.019	0	0.000	0
20080924 03:55	2.8	2.8	2.8	93	1.8	0	0	135	0.00	1018.053	0	0.000	0
20080924 04:00	2.9	2.9	2.9	93	1.9	0	0	135	0.00	1017.985	0	0.000	0
20080924 04:05	2.9	2.9	2.9	93	1.9	0	0	135	0.00	1018.053	0	0.000	0
20080924 04:10	2.9	2.9	2.9	93	1.9	0	0	135	0.00	1018.019	0	0.000	0
20080924 04:15	2.9	2.9	2.9	93	1.9	0	0	135	0.00	1018.053	0	0.000	0
20080924 04:20	2.9	2.9	2.9	93	1.9	0	0	135	0.00	1018.121	0	0.000	0
20080924 04:25	2.8	2.8	2.8	93	1.8	0	0	135	0.00	1018.121	0	0.000	0
20080924 04:30	2.7	2.7	2.7	93	1.7	0	0	135	0.00	1018.154	0	0.000	0
20080924 04:35	2.7	2.7	2.7	93	1.6	0	0	135	0.00	1018.154	0	0.000	0
20080924 04:40	2.6	2.6	2.6	93	1.5	0	0	135	0.00	1018.087	0	0.000	0
20080924 04:45	2.5	2.5	2.5	93	1.5	0	2	135	0.00	1017.985	0	0.000	0
20080924 04:50	2.5	2.5	2.5	93	1.5	0	0	135	0.00	1018.087	0	0.000	0
20080924 04:55	2.5	2.5	2.5	93	1.5	0	0	135	0.00	1018.087	0	0.000	0
20080924 05:00	2.6	2.6	2.6	93	1.5	0	0	135	0.00	1018.121	0	0.000	0
20080924 05:05	2.6	2.6	2.6	93	1.6	0	0	135	0.00	1018.121	0	0.000	0
20080924 05:10	2.7	2.7	2.7	93	1.6	0	0	135	0.00	1018.154	0	0.000	0
20080924 05:15	2.8	2.8	2.8	93	1.8	0	0	135	0.00	1018.188	0	0.000	0
20080924 05:20	2.9	2.9	2.9	94	2.0	0	2	135	0.00	1018.121	0	0.000	0
20080924 05:25	3.1	3.1	3.1	94	2.2	0	2	135	0.00	1018.222	0	0.000	0
20080924 05:30	3.2	3.2	3.2	94	2.3	0	2	135	0.00	1018.188	0	0.000	0
20080924 05:35	3.2	3.2	3.2	93	2.1	0	0	135	0.00	1018.256	0	0.000	0
20080924 05:40	3.2	3.2	3.2	94	2.4	0	0	135	0.00	1018.290	0	0.000	0
20080924 05:45	3.3	3.3	3.3	94	2.4	0	3	135	0.00	1018.358	0	0.000	0
20080924 05:50	3.3	3.3	3.3	94	2.5	0	0	135	0.00	1018.324	0	0.000	0
20080924 05:55	3.4	3.4	3.4	94	2.5	0	0	135	0.00	1018.290	0	0.000	0
20080924 06:00	3.4	3.4	3.4	94	2.6	0	0	135	0.00	1018.222	0	0.000	0
20080924 06:05	3.6	3.6	3.6	94	2.7	0	2	135	0.00	1018.256	0	0.000	0
20080924 06:10	3.6	3.6	3.6	94	2.7	0	2	135	0.00	1018.324	0	0.000	0
20080924 06:15	3.7	3.7	3.7	94	2.8	2	5	135	0.00	1018.392	0	0.000	0
20080924 06:20	3.7	3.7	3.7	94	2.8	0	3	135	0.00	1018.358	0	0.000	0
20080924 06:25	3.8	3.8	3.8	94	2.9	0	2	135	0.00	1018.358	0	0.000	0
20080924 06:30	3.8	3.8	3.8	94	3.0	0	2	135	0.00	1018.358	0	0.000	0
20080924 06:35	3.9	3.9	3.9	94	3.0	0	2	135	0.00	1018.425	0	0.000	0
20080924 06:40	4.0	4.0	4.0	94	3.1	0	0	135	0.00	1018.493	0	0.000	0
20080924 06:45	4.1	4.1	4.1	94	3.2	0	0	135	0.00	1018.561	0	0.000	0
20080924 06:50	4.2	4.2	4.2	94	3.3	0	0	135	0.00	1018.595	0	0.000	0
20080924 06:55	4.2	4.2	4.2	94	3.3	0	2	135	0.00	1018.561	0	0.000	0
20080924 07:00	4.3	4.3	4.3	94	3.4	0	0	135	0.00	1018.595	0	0.000	0
20080924 07:05	4.3	4.3	4.3	94	3.5	0	0	135	0.00	1018.933	0	0.000	0
20080924 07:10	4.3	4.3	4.3	94	3.5	0	0	135	0.00	1018.967	0	0.000	0
20080924 07:15	4.4	4.4	4.4	94	3.5	0	0	135	0.00	1018.967	0	0.000	0
20080924 07:20	4.4	4.4	4.4	94	3.6	0	0	135	0.00	1019.035	2	0.000	0
20080924 07:25	4.5	4.5	4.5	94	3.6	0	0	135	0.00	1019.069	5	0.000	0
20080924 07:30	4.6	4.6	4.6	94	3.7	0	0	135	0.00	1019.103	8	0.000	0
20080924 07:35	4.6	4.6	4.6	94	3.7	0	0	135	0.00	1019.272	10	0.000	0
20080924 07:40	4.7	4.7	4.7	94	3.8	0	0	135	0.00	1019.272	14	0.000	0
20080924 07:45	4.7	4.7	4.7	94	3.8	0	0	135	0.00	1019.170	16	0.000	0
20080924 07:50	4.8	4.8	4.8	94	3.9	0	0	135	0.00	1019.238	17	0.000	0
20080924 07:55	4.9	4.9	4.9	94	4.0	0	0	135	0.00	1019.272	19	0.000	0
20080924 08:00	4.9	4.9	4.9	94	4.1	0	0	135	0.00	1019.272	24	0.000	0
20080924 08:05	4.9	4.9	4.9	94	4.1	0	0	135	0.00	1019.441	38	0.000	0
20080924 08:10	5.0	5.0	5.0	99	4.9	0	0	135	0.00	1019.340	58	0.000	0
20080924 08:15	5.1	5.1	5.1	94	4.2	0	0	135	0.00	1019.475	63	0.000	0
20080924 08:20	5.2	5.2	5.2	94	4.3	0	0	135	0.00	1019.475	55	0.000	0
20080924 08:25	5.3	5.3	5.3	94	4.4	0	2	135	0.00	1019.611	63	0.000	0
20080924 08:30	5.4	5.4	5.4	94	4.5	0	0	135	0.00	1019.645	72	0.000	0
20080924 08:35	5.6	5.6	5.6	94	4.7	0	0	135	0.00	1019.712	72	0.000	0
20080924 08:40	5.6	5.6	5.6	94	4.7	0	0	135	0.00	1019.678	66	0.000	0
20080924 08:45	5.7	5.7	5.7	94	4.8	0	0	135	0.00	1019.678	69	0.000	0
20080924 08:50	5.8	5.8	5.8	94	4.9	0	0	135	0.00	1019.577	76	0.000	0
20080924 08:55	6.0	6.0	6.0	94	5.1	0	0	135	0.00	1019.543	76	0.000	0
20080924 09:00	6.1	6.1	6.1	94	5.2	0	0	135	0.00	1019.543	80	0.020	0
20080924 09:05	6.2	6.2	6.2	94	5.3	0	0	135	0.00	1019.678	89	0.000	0
20080924 09:10	6.3	6.3	6.3	94	5.4	0	0	135	0.00	1019.746	102	0.000	0
20080924 09:15	6.5	6.5	6.5	94	5.6	0	3	135	0.00	1019.645	115	0.000	0
20080924 09:20	6.7	6.7	6.7	94	5.8	2	6	135	0.00	1019.611	138	0.000	1
20080924 09:25	6.8	6.8	6.8	94	5.9	2	6	135	0.00	1019.611	130	0.000	1
20080924 09:30	7.0	7.0	7.0	94	6.1	0	3	157	0.00	1019.645	106	0.000	1
20080924 09:35	7.2	7.2	7.2	94	6.3	2	5	157	0.00	1019.645	106	0.000	1
20080924 09:40	7.3	7.3	7.3	93	6.2	2	6	225	0.00	1019.712	105	0.000	1
20080924 09:45	7.4	7.4	7.4	93	6.3	2	5	225	0.00	1019.712	110	0.000	1
20080924 09:50	7.6	7.6	7.6	93	6.5	0	2	225	0.00	1019.611	114	0.000	1
20080924 09:55	7.8	7.8	7.8	93	6.7	0	0	225	0.00	1019.678	119	0.000	1
20080924 10:00	7.9	7.9	7.9	92	6.7	0	3	225	0.00	1019.678	125	0.040	1
20080924 10:05	8.2	8.2	8.2	91	6.8	0	2	225	0.00	1019.882	163	0.000	1
20080924 10:10	8.3	8.3	8.3	91	7.0	0	2	225	0.00	1019.780	187	0.000	1
20080924 10:15	8.6	8.6	8.6	90	7.0	0	2	225	0.00	1019.780	199	0.000	1
20080924 10:20	8.8	8.8	8.8	90	7.3	2	5	292	0.00	1019.746	206	0.000	1
20080924 10:25	9.1	9.1	9.1	89	7.3	0	3	315	0.00	1019.746	198	0.000	1
20080924 10:30	9.2	9.2	9.2	88	7.3	2	5	315	0.00	1019.780	156	0.000	1
20080924 10:35	9.3	9.3	9.3	88	7.4	0	3	0	0.00	1019.814	136	0.000	1
20080924 10:40	9.2	9.2	9.2	88	7.3	2	3	292	0.00	1019.814	121	0.000	1
20080924 10:45	9.2	9.2	9.2	88	7.3	0	3	315	0.00	1019.882	111	0.000	1
20080924 10:50	9.2	9.2	9.2	87	7.1	0	2	315	0.00	1019.848	100	0.000	1
20080924 10:55	9.2	9.2	9.2	88	7.3	0	2	315	0.00	1019.882	143	0.000	1
20080924 11:00	9.1	9.1	9.1	87	7.1	3	5	22	0.00	1019.949	175	0.060	2
20080924 11:05	9.2	9.2	9.2	87	7.1	2	5	0	0.00	1019.983	209	0.000	2
20080924 11:10	9.2	9.2	9.2	87	7.2	2	5	22	0.00	1019.949	191	0.000	2
20080924 11:15	9.4	9.4	9.4	87	7.3	0	3	22	0.00	1019.983	190	0.000	2
20080924 11:20	9.6	9.6	9.6	87	7.5	2	5	45	0.00	1020.017	200	0.000	2
20080924 11:25	9.6	9.6	9.6	85	7.2	3	6	45	0.00	1019.983	200	0.000	2
20080924 11:30	9.6	9.6	9.6	85	7.2	3	6	22	0.00	1019.983	188	0.000	2
20080924 11:35	9.6	9.6	9.6	84	7.0	3	5	45	0.00	1020.017	187	0.000	2
20080924 11:40	9.7	9.7	9.7	84	7.1	2	5	22	0.00	1019.983	187	0.000	2
20080924 11:45	9.8	9.8	9.8	84	7.2	2	5	22	0.00	1020.085	225	0.000	2
20080924 11:50	9.9	9.9	9.9	82	7.0	3	6	22	0.00	1020.017	223	0.000	2
20080924 11:55	10.0	10.0	10.0	82	7.1	3	6	67	0.00	1020.017	234	0.000	2
20080924 12:00	10.2	10.2	10.2	82	7.2	3	6	67	0.00	1020.085	250	0.080	2
20080924 12:05	10.2	10.2	10.2	80	6.9	5	8	45	0.00	1020.220	268	0.000	2
20080924 12:10	10.3	10.3	10.3	81	7.2	3	6	45	0.00	1020.152	293	0.000	2
20080924 12:15	10.3	10.3	10.3	79	6.8	5	11	45	0.00	1020.017	297	0.000	2
20080924 12:20	10.3	10.3	10.3	81	7.2	5	8	45	0.00	1019.949	281	0.000	2
20080924 12:25	10.4	10.4	10.4	80	7.1	3	8	90	0.00	1020.017	269	0.000	2
20080924 12:30	10.5	10.5	10.5	80	7.2	3	8	22	0.00	1019.983	313	0.000	2
20080924 12:35	10.7	10.7	10.7	79	7.2	3	6	67	0.00	1019.949	308	0.000	2
20080924 12:40	10.7	10.7	10.7	78	7.0	5	10	0	0.00	1020.017	312	0.000	3
20080924 12:45	10.7	10.7	10.7	77	6.9	2	6	45	0.00	1020.017	420	0.000	3
20080924 12:50	10.9	10.9	10.9	75	6.6	3	6	67	0.00	1019.983	369	0.000	2
20080924 12:55	10.8	10.8	10.8	76	6.8	3	6	22	0.00	1020.085	287	0.000	2
20080924 13:00	10.9	10.9	10.9	73	6.3	3	8	45	0.00	1020.119	229	0.120	2
20080924 13:05	10.9	10.9	10.9	73	6.3	3	6	67	0.00	1020.119	211	0.000	2
20080924 13:10	10.9	10.9	10.9	71	5.9	3	8	45	0.00	1020.119	211	0.000	2
20080924 13:15	10.9	10.9	10.9	73	6.2	5	8	45	0.00	1020.119	209	0.000	2
20080924 13:20	10.9	10.9	10.9	72	6.1	3	6	45	0.00	1020.119	222	0.000	2
20080924 13:25	11.1	11.1	11.1	72	6.2	3	6	67	0.00	1020.085	224	0.000	2
20080924 13:30	11.1	11.1	11.1	73	6.5	2	5	67	0.00	1019.949	229	0.000	2
20080924 13:35	11.2	11.2	11.2	73	6.5	2	5	135	0.00	1019.949	194	0.000	2
20080924 13:40	11.2	11.2	11.2	72	6.4	0	3	135	0.00	1020.017	172	0.000	1
20080924 13:45	11.2	11.2	11.2	73	6.5	2	5	45	0.00	1019.949	159	0.000	1
20080924 13:50	11.1	11.1	11.1	74	6.7	3	5	67	0.00	1019.983	163	0.000	1
20080924 13:55	11.1	11.1	11.1	74	6.6	2	5	67	0.00	1019.983	179	0.000	1
20080924 14:00	11.1	11.1	11.1	74	6.7	2	5	67	0.00	1019.949	195	0.080	2
20080924 14:05	11.2	11.2	11.2	74	6.7	3	6	22	0.00	1020.085	212	0.000	2
20080924 14:10	11.2	11.2	11.2	74	6.8	2	5	22	0.00	1020.051	200	0.000	2
20080924 14:15	11.3	11.3	11.3	75	7.0	2	5	90	0.00	1020.085	178	0.000	1
20080924 14:20	11.4	11.4	11.4	75	7.1	2	5	315	0.00	1019.983	180	0.000	1
20080924 14:25	11.4	11.4	11.4	75	7.1	0	5	270	0.00	1019.814	182	0.000	1
20080924 14:30	11.5	11.5	11.5	73	6.8	0	3	0	0.00	1019.780	188	0.000	1
20080924 14:35	11.6	11.6	11.6	74	7.1	2	5	22	0.00	1019.746	211	0.000	2
20080924 14:40	11.6	11.6	11.6	73	6.9	3	8	45	0.00	1019.746	189	0.000	1
20080924 14:45	11.5	11.5	11.5	71	6.4	2	6	45	0.00	1019.746	182	0.000	1
20080924 14:50	11.5	11.5	11.5	73	6.8	2	5	45	0.00	1019.712	179	0.000	1
20080924 14:55	11.4	11.4	11.4	71	6.4	3	6	90	0.00	1019.746	192	0.000	1
20080924 15:00	11.4	11.4	11.4	72	6.6	5	10	67	0.00	1019.814	178	0.080	1
20080924 15:05	11.4	11.4	11.4	73	6.7	5	10	22	0.00	1019.780	167	0.000	1
20080924 15:10	11.4	11.4	11.4	73	6.7	5	10	45	0.00	1019.780	198	0.000	2
20080924 15:15	11.6	11.6	11.6	76	7.5	3	6	22	0.00	1019.746	236	0.000	2
20080924 15:20	11.7	11.7	11.7	72	6.8	5	8	45	0.00	1019.780	290	0.000	2
20080924 15:25	11.9	11.9	11.9	71	6.8	5	10	22	0.00	1019.712	298	0.000	2
20080924 15:30	12.0	12.0	12.0	71	6.9	5	10	45	0.00	1019.645	251	0.000	2
20080924 15:35	11.9	11.9	11.9	72	7.1	3	11	0	0.00	1019.645	252	0.000	2
20080924 15:40	12.1	12.1	12.1	71	7.0	5	16	22	0.00	1019.543	262	0.000	2
20080924 15:45	12.0	12.0	12.0	70	6.7	6	11	22	0.00	1019.577	304	0.000	2
20080924 15:50	12.1	12.1	12.1	72	7.2	3	8	22	0.00	1019.543	251	0.000	1
20080924 15:55	12.1	12.1	12.1	69	6.6	6	16	22	0.00	1019.645	197	0.000	1
20080924 16:00	11.9	11.9	11.9	70	6.6	5	11	45	0.00	1019.611	166	0.100	1
20080924 16:05	11.9	11.9	11.9	69	6.4	5	10	45	0.00	1019.678	163	0.000	1
20080924 16:10	11.8	11.8	11.8	70	6.5	6	10	45	0.00	1019.678	169	0.000	1
20080924 16:15	11.7	11.7	11.7	71	6.6	5	10	0	0.00	1019.678	161	0.000	1
20080924 16:20	11.7	11.7	11.7	71	6.6	5	8	22	0.00	1019.645	158	0.000	1
20080924 16:25	11.8	11.8	11.8	71	6.7	5	10	45	0.00	1019.645	175	0.000	1
20080924 16:30	11.8	11.8	11.8	69	6.3	6	10	22	0.00	1019.678	198	0.000	1
20080924 16:35	11.9	11.9	11.9	69	6.4	6	10	22	0.00	1019.712	211	0.000	1
20080924 16:40	11.9	11.9	11.9	70	6.6	6	11	45	0.00	1019.780	210	0.000	1
20080924 16:45	12.0	12.0	12.0	68	6.3	5	10	22	0.00	1019.746	179	0.000	1
20080924 16:50	12.0	12.0	12.0	69	6.5	6	10	45	0.00	1019.814	124	0.000	0
20080924 16:55	11.9	11.9	11.9	69	6.4	5	10	22	0.00	1019.814	97	0.000	0
20080924 17:00	11.7	11.7	11.7	69	6.2	6	11	0	0.00	1019.848	87	0.080	0
20080924 17:05	11.6	11.6	11.6	69	6.1	6	10	45	0.00	1019.848	74	0.000	0
20080924 17:10	11.6	11.6	11.6	70	6.3	5	11	45	0.00	1019.882	66	0.000	0
20080924 17:15	11.4	11.4	11.4	73	6.8	6	13	45	0.00	1019.915	43	0.000	0
20080924 17:20	11.2	11.2	11.2	73	6.5	8	16	45	0.00	1020.017	39	0.000	0
20080924 17:25	10.9	10.9	10.9	74	6.5	5	8	45	0.00	1020.017	36	0.000	0
20080924 17:30	10.8	10.8	10.8	74	6.4	5	10	45	0.00	1020.085	35	0.000	0
20080924 17:35	10.7	10.7	10.7	73	6.1	6	10	45	0.00	1020.186	31	0.000	0
20080924 17:40	10.6	10.6	10.6	73	6.0	6	10	45	0.00	1020.288	26	0.000	0
20080924 17:45	10.4	10.4	10.4	72	5.6	5	8	45	0.00	1020.356	24	0.000	0
20080924 17:50	10.3	10.3	10.3	72	5.5	5	8	45	0.00	1020.423	21	0.000	0
20080924 17:55	10.2	10.2	10.2	73	5.6	5	11	45	0.00	1020.457	21	0.000	0
20080924 18:00	10.2	10.2	10.2	74	5.7	5	8	45	0.00	1020.457	21	0.020	0
20080924 18:05	10.1	10.1	10.1	74	5.7	3	6	45	0.00	1020.322	20	0.000	0
20080924 18:10	10.1	10.1	10.1	75	5.8	2	6	22	0.00	1020.356	18	0.000	0
20080924 18:15	9.9	9.9	9.9	75	5.7	2	5	45	0.00	1020.423	15	0.000	0
20080924 18:20	9.9	9.9	9.9	75	5.7	2	5	45	0.00	1020.491	12	0.000	0
20080924 18:25	9.8	9.8	9.8	77	6.0	2	3	45	0.00	1020.593	11	0.000	0
20080924 18:30	9.8	9.8	9.8	77	5.9	2	3	45	0.00	1020.627	8	0.000	0
20080924 18:35	9.8	9.8	9.8	77	5.9	2	3	45	0.00	1020.728	7	0.000	0
20080924 18:40	9.7	9.7	9.7	78	6.1	2	3	45	0.00	1020.762	5	0.000	0
20080924 18:45	9.7	9.7	9.7	79	6.2	0	3	45	0.00	1020.864	5	0.000	0
20080924 18:50	9.6	9.6	9.6	79	6.1	2	5	45	0.00	1020.931	1	0.000	0
20080924 18:55	9.6	9.6	9.6	79	6.1	2	5	45	0.00	1020.931	0	0.000	0
20080924 19:00	9.5	9.5	9.5	79	6.0	2	3	45	0.00	1021.067	0	0.000	0
20080924 19:05	9.4	9.4	9.4	80	6.2	2	5	45	0.00	1020.999	0	0.000	0
20080924 19:10	9.3	9.3	9.3	80	6.1	2	3	45	0.00	1021.134	0	0.000	0
20080924 19:15	9.3	9.3	9.3	81	6.2	0	3	45	0.00	1021.134	0	0.000	0
20080924 19:20	9.2	9.2	9.2	82	6.3	0	2	45	0.00	1021.168	0	0.000	0
20080924 19:25	9.2	9.2	9.2	82	6.3	0	0	45	0.00	1021.270	0	0.000	0
20080924 19:30	9.1	9.1	9.1	83	6.4	0	0	45	0.00	1021.304	0	0.000	0
20080924 19:35	9.1	9.1	9.1	83	6.3	0	2	45	0.00	1021.372	0	0.000	0
20080924 19:40	9.1	9.1	9.1	83	6.3	0	2	45	0.00	1021.439	0	0.000	0
20080924 19:45	9.1	9.1	9.1	83	6.4	0	0	45	0.00	1021.473	0	0.000	0
20080924 19:50	9.1	9.1	9.1	84	6.6	0	0	45	0.00	1021.575	0	0.000	0
20080924 19:55	9.1	9.1	9.1	85	6.7	0	0	45	0.20	1021.609	0	0.000	0
20080924 20:00	9.1	9.1	9.1	85	6.7	0	0	45	0.00	1021.507	0	0.000	0
20080924 20:05	9.0	9.0	9.0	85	6.6	0	0	45	0.00	1021.405	0	0.000	0
20080924 20:10	8.9	8.9	8.9	86	6.7	0	0	45	0.00	1021.507	0	0.000	0
20080924 20:15	8.9	8.9	8.9	86	6.7	0	0	45	0.00	1021.541	0	0.000	0
20080924 20:20	8.8	8.8	8.8	86	6.6	0	0	45	0.00	1021.541	0	0.000	0
20080924 20:25	8.8	8.8	8.8	86	6.6	0	0	45	0.00	1021.507	0	0.000	0
20080924 20:30	8.8	8.8	8.8	86	6.6	0	0	45	0.00	1021.643	0	0.000	0
20080924 20:35	8.8	8.8	8.8	86	6.6	0	0	45	0.00	1021.609	0	0.000	0
20080924 20:40	8.8	8.8	8.8	86	6.6	0	2	45	0.00	1021.643	0	0.000	0
20080924 20:45	8.8	8.8	8.8	86	6.6	0	0	45	0.00	1021.710	0	0.000	0
20080924 20:50	8.8	8.8	8.8	87	6.7	0	0	45	0.00	1021.744	0	0.000	0
20080924 20:55	8.7	8.7	8.7	87	6.7	0	0	45	0.00	1021.812	0	0.000	0
20080924 21:00	8.7	8.7	8.7	87	6.7	0	0	45	0.00	1021.846	0	0.000	0
20080924 21:05	8.7	8.7	8.7	87	6.6	0	0	45	0.00	1021.575	0	0.000	0
20080924 21:10	8.7	8.7	8.7	87	6.6	0	0	45	0.00	1021.676	0	0.000	0
20080924 21:15	8.7	8.7	8.7	87	6.6	0	0	45	0.00	1021.676	0	0.000	0
20080924 21:20	8.7	8.7	8.7	87	6.6	0	0	45	0.00	1021.710	0	0.000	0
20080924 21:25	8.7	8.7	8.7	87	6.6	0	2	45	0.00	1021.744	0	0.000	0
20080924 21:30	8.6	8.6	8.6	87	6.6	0	0	45	0.00	1021.744	0	0.000	0
20080924 21:35	8.6	8.6	8.6	87	6.6	0	0	45	0.00	1021.778	0	0.000	0
20080924 21:40	8.6	8.6	8.6	87	6.5	0	0	45	0.00	1021.846	0	0.000	0
20080924 21:45	8.6	8.6	8.6	87	6.5	0	0	45	0.00	1021.846	0	0.000	0
20080924 21:50	8.5	8.5	8.5	87	6.5	0	0	45	0.00	1021.913	0	0.000	0
20080924 21:55	8.5	8.5	8.5	88	6.6	0	0	45	0.00	1021.913	0	0.000	0
20080924 22:00	8.4	8.4	8.4	88	6.6	0	0	45	0.00	1021.947	0	0.000	0
20080924 22:05	8.4	8.4	8.4	88	6.6	0	0	45	0.00	1021.812	0	0.000	0
20080924 22:10	8.4	8.4	8.4	89	6.7	0	0	45	0.00	1021.846	0	0.000	0
20080924 22:15	8.4	8.4	8.4	89	6.7	0	0	45	0.00	1021.846	0	0.000	0
20080924 22:20	8.4	8.4	8.4	89	6.7	0	0	45	0.00	1021.846	0	0.000	0
20080924 22:25	8.4	8.4	8.4	89	6.7	0	0	45	0.00	1021.913	0	0.000	0
20080924 22:30	8.4	8.4	8.4	89	6.7	0	0	45	0.00	1021.947	0	0.000	0
20080924 22:35	8.4	8.4	8.4	89	6.7	0	0	45	0.00	1021.981	0	0.000	0
20080924 22:40	8.4	8.4	8.4	89	6.7	0	0	45	0.00	1021.981	0	0.000	0
20080924 22:45	8.4	8.4	8.4	89	6.7	0	0	45	0.00	1021.981	0	0.000	0
20080924 22:50	8.4	8.4	8.4	90	6.8	0	0	45	0.00	1021.981	0	0.000	0
20080924 22:55	8.4	8.4	8.4	90	6.9	0	0	45	0.00	1021.947	0	0.000	0
20080924 23:00	8.4	8.4	8.4	90	6.9	0	0	45	0.00	1021.981	0	0.000	0
20080924 23:05	8.4	8.4	8.4	90	6.9	0	0	45	0.00	1021.880	0	0.000	0
20080924 23:10	8.4	8.4	8.4	90	6.9	0	0	45	0.00	1021.913	0	0.000	0
20080924 23:15	8.4	8.4	8.4	90	6.9	0	0	45	0.00	1021.947	0	0.000	0
20080924 23:20	8.4	8.4	8.4	90	6.9	0	2	45	0.00	1021.812	0	0.000	0
20080924 23:25	8.4	8.4	8.4	90	6.9	0	0	45	0.00	1021.880	0	0.000	0
20080924 23:30	8.4	8.4	8.4	90	6.9	0	2	45	0.00	1021.880	0	0.000	0
20080924 23:35	8.4	8.4	8.4	90	6.9	0	2	45	0.00	1021.812	0	0.000	0
20080924 23:40	8.4	8.4	8.4	91	7.1	0	2	45	0.00	1021.880	0	0.000	0
20080924 23:45	8.4	8.4	8.4	91	7.1	0	2	45	0.00	1021.812	0	0.000	0
20080924 23:50	8.4	8.4	8.4	91	7.1	0	2	45	0.00	1021.913	0	0.000	0
20080924 23:55	8.4	8.4	8.4	91	7.1	0	2	45	0.00	1021.880	0	0.000	0
20080924 24:00	8.4	8.4	8.4	91	7.1	0	0	45	0.00	1021.913	0	0.000	0



Please note the license to use and transfer of this data:
http://creativecommons.org/licenses/by-nc-sa/3.0/deed.en

Bitte beachten sie die Lizenz zur Verwertung und Weitergabe der Daten:
http://creativecommons.org/licenses/by-nc-sa/3.0/deed.de

zurück zur Übersicht der Archivdaten (Monats und Tagesdaten)

Cookies helfen bei der Bereitstellung von Inhalten. Durch die Nutzung dieser Seiten erklärst du dich damit einverstanden, dass Cookies auf deinem Rechner gespeichert werden. Weitere Information